Time;durP1;ratioP1;P1;durP2;ratioP2;P2;SDS_P1;SDS_P2;PMS_P1;PMS_P2;Temp;Humidity;BMP_temperature;BMP_pressure;BME280_temperature;BME280_humidity;BME280_pressure;Samples;Min_cycle;Max_cycle;Signal;HPM_P1;HPM_P2
2023/08/01 00:00:56;;;;;;;2.42;1.88;;;17.80;99.90;;;;;;4160563;28;20065;-66
2023/08/01 00:02:58;;;;;;;4.05;2.10;;;17.80;99.90;;;;;;4159167;28;20087;-64
2023/08/01 00:05:02;;;;;;;10.50;2.53;;;17.80;99.90;;;;;;4160706;28;20445;-67
2023/08/01 00:07:03;;;;;;;5.05;1.70;;;17.70;99.90;;;;;;4160373;28;20416;-63
2023/08/01 00:09:05;;;;;;;2.67;1.90;;;17.70;99.90;;;;;;4160946;28;20132;-63
2023/08/01 00:11:06;;;;;;;2.60;1.85;;;17.70;99.90;;;;;;4160028;28;20470;-67
2023/08/01 00:13:07;;;;;;;3.83;1.70;;;17.70;99.90;;;;;;4160949;28;20033;-64
2023/08/01 00:15:09;;;;;;;3.30;2.05;;;17.70;99.90;;;;;;4159559;28;20190;-69
2023/08/01 00:17:10;;;;;;;7.88;2.65;;;17.70;99.90;;;;;;4161466;28;20037;-63
2023/08/01 00:19:12;;;;;;;2.05;1.77;;;17.70;99.90;;;;;;4160090;28;20025;-71
2023/08/01 00:21:13;;;;;;;4.38;1.80;;;17.70;99.90;;;;;;4160391;28;20084;-70
2023/08/01 00:23:14;;;;;;;3.45;1.73;;;17.80;99.90;;;;;;4160044;28;20107;-64
2023/08/01 00:25:15;;;;;;;4.30;1.90;;;17.70;99.90;;;;;;4160337;28;20112;-64
2023/08/01 00:27:16;;;;;;;6.85;2.17;;;17.80;99.90;;;;;;4160158;28;20112;-66
2023/08/01 00:29:18;;;;;;;4.13;1.70;;;17.80;99.90;;;;;;4160404;28;20030;-65
2023/08/01 00:31:19;;;;;;;4.78;2.20;;;17.70;99.90;;;;;;4161003;28;20095;-64
2023/08/01 00:33:20;;;;;;;2.10;1.90;;;17.70;99.90;;;;;;4160040;28;20437;-68
2023/08/01 00:35:21;;;;;;;2.92;1.75;;;17.60;99.90;;;;;;4161164;28;20029;-64
2023/08/01 00:37:22;;;;;;;5.18;2.10;;;17.60;99.90;;;;;;4159733;28;20428;-68
2023/08/01 00:39:23;;;;;;;3.42;2.40;;;17.60;99.90;;;;;;4160588;28;20095;-65
2023/08/01 00:41:24;;;;;;;4.50;2.35;;;17.50;99.90;;;;;;4159972;28;20096;-64
2023/08/01 00:43:26;;;;;;;2.97;2.17;;;17.40;99.90;;;;;;4161302;28;20053;-63
2023/08/01 00:45:28;;;;;;;3.65;2.33;;;17.40;99.90;;;;;;4160343;28;20037;-63
2023/08/01 00:47:29;;;;;;;2.97;2.67;;;17.40;99.90;;;;;;4161123;28;20048;-68
2023/08/01 00:49:31;;;;;;;3.22;2.92;;;17.40;99.90;;;;;;4159564;28;20582;-70
2023/08/01 00:51:32;;;;;;;3.25;2.33;;;17.30;99.90;;;;;;4160942;28;20037;-65
2023/08/01 00:53:35;;;;;;;5.15;2.55;;;17.30;99.90;;;;;;4159211;28;20495;-67
2023/08/01 00:55:37;;;;;;;2.75;2.50;;;17.30;99.90;;;;;;4160088;28;20055;-67
2023/08/01 00:57:38;;;;;;;2.50;2.30;;;17.20;99.90;;;;;;4159070;28;20067;-64
2023/08/01 00:59:40;;;;;;;5.30;2.70;;;17.20;99.90;;;;;;4160505;28;20083;-70
2023/08/01 01:01:41;;;;;;;4.53;2.50;;;17.20;99.90;;;;;;4160333;28;20103;-66
2023/08/01 01:03:42;;;;;;;4.32;2.63;;;17.10;99.90;;;;;;4159745;28;20045;-62
2023/08/01 01:06:00;;;;;;;3.75;2.50;;;17.10;99.90;;;;;;4160354;28;20037;-64
2023/08/01 01:08:04;;;;;;;2.83;2.58;;;17.10;99.90;;;;;;4162571;28;20075;-70
2023/08/01 01:10:05;;;;;;;2.90;2.58;;;17.00;99.90;;;;;;4163635;28;20033;-67
2023/08/01 01:12:07;;;;;;;8.07;2.50;;;17.10;99.90;;;;;;4162643;28;20115;-64
2023/08/01 01:14:08;;;;;;;5.80;2.95;;;17.00;99.90;;;;;;4164121;28;20081;-67
2023/08/01 01:16:09;;;;;;;3.63;2.90;;;17.00;99.90;;;;;;4162944;28;20453;-65
2023/08/01 01:18:10;;;;;;;4.18;2.95;;;17.00;99.90;;;;;;4164064;28;20116;-64
2023/08/01 01:20:11;;;;;;;5.57;2.63;;;16.90;99.90;;;;;;4163270;28;20041;-65
2023/08/01 01:22:19;;;;;;;7.32;2.47;;;16.90;99.90;;;;;;4163097;28;20080;-64
2023/08/01 01:24:22;;;;;;;4.68;2.35;;;16.90;99.90;;;;;;4162004;28;20331;-65
2023/08/01 01:26:23;;;;;;;4.60;2.30;;;16.90;99.90;;;;;;4163205;28;20030;-63
2023/08/01 01:28:26;;;;;;;3.28;2.65;;;16.90;99.90;;;;;;4162895;28;20084;-64
2023/08/01 01:30:28;;;;;;;3.22;2.88;;;16.90;99.90;;;;;;4164097;28;20050;-63
2023/08/01 01:32:30;;;;;;;7.28;2.60;;;16.90;99.90;;;;;;4162471;28;20029;-64
2023/08/01 01:34:31;;;;;;;2.65;2.10;;;16.90;99.90;;;;;;4163693;28;20478;-67
2023/08/01 01:36:32;;;;;;;2.50;2.20;;;16.90;99.90;;;;;;4161503;28;20053;-66
2023/08/01 01:38:33;;;;;;;4.20;2.50;;;17.00;99.90;;;;;;4163076;28;20033;-66
2023/08/01 01:40:34;;;;;;;3.58;2.60;;;16.90;99.90;;;;;;4163142;28;20536;-70
2023/08/01 01:42:36;;;;;;;3.83;2.45;;;16.90;99.90;;;;;;4162565;28;20075;-71
2023/08/01 01:44:37;;;;;;;4.05;2.13;;;16.90;99.90;;;;;;4163409;28;20037;-64
2023/08/01 01:46:38;;;;;;;4.63;2.42;;;16.90;99.90;;;;;;4162674;28;20484;-68
2023/08/01 01:48:39;;;;;;;3.17;2.60;;;16.90;99.90;;;;;;4163687;28;20029;-67
2023/08/01 01:50:41;;;;;;;6.20;3.05;;;16.90;99.90;;;;;;4162277;28;20478;-69
2023/08/01 01:52:42;;;;;;;7.25;3.38;;;16.80;99.90;;;;;;4163904;28;20083;-69
2023/08/01 01:54:43;;;;;;;5.97;3.40;;;16.80;99.90;;;;;;4162196;28;20064;-71
2023/08/01 01:56:44;;;;;;;4.07;3.50;;;16.70;99.90;;;;;;4162745;28;20049;-64
2023/08/01 01:58:45;;;;;;;4.78;3.40;;;16.70;99.90;;;;;;4161807;28;20045;-70
2023/08/01 02:00:46;;;;;;;7.82;2.97;;;16.60;99.90;;;;;;4163432;28;20493;-64
2023/08/01 02:02:47;;;;;;;4.97;3.60;;;16.60;99.90;;;;;;4161844;28;20115;-64
2023/08/01 02:04:50;;;;;;;6.13;3.17;;;16.50;99.90;;;;;;4162975;28;20026;-66
2023/08/01 02:06:53;;;;;;;4.82;3.10;;;16.60;99.90;;;;;;4162436;28;20014;-64
2023/08/01 02:08:54;;;;;;;5.93;3.15;;;16.60;99.90;;;;;;4161086;28;20041;-65
2023/08/01 02:10:58;;;;;;;3.58;3.22;;;16.60;99.90;;;;;;4162501;28;20590;-65
2023/08/01 02:12:59;;;;;;;8.65;3.30;;;16.60;99.90;;;;;;4162514;28;20034;-72
2023/08/01 02:15:00;;;;;;;5.70;3.42;;;16.60;99.90;;;;;;4162813;28;20086;-64
2023/08/01 02:17:01;;;;;;;5.72;3.83;;;16.60;99.90;;;;;;4162007;28;20053;-64
2023/08/01 02:19:02;;;;;;;4.65;3.33;;;16.50;99.90;;;;;;4162705;28;20440;-65
2023/08/01 02:21:03;;;;;;;7.80;3.50;;;16.50;99.90;;;;;;4161938;28;20087;-66
2023/08/01 02:23:05;;;;;;;6.40;3.58;;;16.50;99.90;;;;;;4162659;28;20037;-71
2023/08/01 02:25:07;;;;;;;3.17;2.83;;;16.40;99.90;;;;;;4159806;28;20045;-67
2023/08/01 02:27:09;;;;;;;3.78;3.17;;;16.30;99.90;;;;;;4163112;28;20026;-66
2023/08/01 02:29:10;;;;;;;3.88;3.22;;;16.30;99.90;;;;;;4161607;28;20744;-64
2023/08/01 02:31:11;;;;;;;6.65;2.90;;;16.30;99.90;;;;;;4163410;28;20042;-66
2023/08/01 02:33:12;;;;;;;5.65;3.38;;;16.30;99.90;;;;;;4162124;28;20041;-64
2023/08/01 02:35:13;;;;;;;7.38;3.55;;;16.30;99.90;;;;;;4162199;28;20418;-63
2023/08/01 02:37:14;;;;;;;3.90;2.95;;;16.30;99.90;;;;;;4161669;28;20033;-68
2023/08/01 02:39:15;;;;;;;4.85;2.40;;;16.30;99.90;;;;;;4162571;28;20034;-65
2023/08/01 02:41:17;;;;;;;6.20;3.05;;;16.20;99.90;;;;;;4162305;28;20498;-66
2023/08/01 02:43:18;;;;;;;3.30;2.88;;;16.20;99.90;;;;;;4162328;28;20083;-68
2023/08/01 02:45:19;;;;;;;5.97;2.85;;;16.20;99.90;;;;;;4162386;28;20033;-68
2023/08/01 02:47:20;;;;;;;3.03;2.78;;;16.10;99.90;;;;;;4161937;28;20041;-65
2023/08/01 02:49:21;;;;;;;4.40;2.33;;;16.10;99.90;;;;;;4161932;28;20371;-64
2023/08/01 02:51:22;;;;;;;5.20;3.00;;;16.00;99.90;;;;;;4161150;28;20072;-65
2023/08/01 02:53:24;;;;;;;3.10;2.80;;;16.00;99.90;;;;;;4162840;28;20445;-64
2023/08/01 02:55:25;;;;;;;4.68;2.55;;;16.10;99.90;;;;;;4161113;28;20107;-69
2023/08/01 02:57:26;;;;;;;3.30;3.00;;;16.00;99.90;;;;;;4162693;28;20121;-65
2023/08/01 02:59:27;;;;;;;5.22;3.13;;;16.10;99.90;;;;;;4161179;28;20544;-63
2023/08/01 03:01:28;;;;;;;6.78;3.10;;;16.00;99.90;;;;;;4162479;28;20021;-69
2023/08/01 03:03:29;;;;;;;6.90;2.88;;;16.00;99.90;;;;;;4161288;28;20037;-64
2023/08/01 03:05:31;;;;;;;4.82;3.00;;;16.00;99.90;;;;;;4162168;28;20041;-64
2023/08/01 03:07:32;;;;;;;3.90;2.97;;;16.00;99.90;;;;;;4160999;28;20087;-70
2023/08/01 03:09:33;;;;;;;8.10;3.40;;;15.90;99.90;;;;;;4161615;28;20072;-67
2023/08/01 03:11:37;;;;;;;7.63;3.25;;;15.90;99.90;;;;;;4160976;28;20071;-70
2023/08/01 03:13:39;;;;;;;8.98;3.35;;;15.90;99.90;;;;;;4160744;28;20033;-71
2023/08/01 03:15:40;;;;;;;5.03;3.08;;;16.00;99.90;;;;;;4161014;28;20079;-70
2023/08/01 03:17:41;;;;;;;3.13;2.70;;;16.10;99.90;;;;;;4160842;28;20389;-72
2023/08/01 03:19:42;;;;;;;9.48;3.30;;;16.20;99.90;;;;;;4161516;28;20569;-68
2023/08/01 03:21:43;;;;;;;4.13;2.90;;;16.30;99.90;;;;;;4161102;28;20525;-68
2023/08/01 03:23:45;;;;;;;6.43;2.90;;;16.50;99.90;;;;;;4162520;28;20037;-67
2023/08/01 03:25:46;;;;;;;8.20;3.15;;;16.60;99.90;;;;;;4160870;28;20033;-68
2023/08/01 03:27:47;;;;;;;7.53;3.15;;;16.80;99.90;;;;;;4162490;28;20045;-68
2023/08/01 03:29:48;;;;;;;4.47;2.92;;;17.00;99.90;;;;;;4160277;28;20095;-63
2023/08/01 03:31:49;;;;;;;3.35;2.75;;;17.20;99.90;;;;;;4161344;28;20131;-63
2023/08/01 03:33:50;;;;;;;5.70;2.80;;;17.40;99.90;;;;;;4160547;28;20053;-65
2023/08/01 03:35:51;;;;;;;5.30;2.90;;;17.70;99.90;;;;;;4160550;28;20083;-63
2023/08/01 03:37:53;;;;;;;6.28;2.95;;;17.90;99.90;;;;;;4158978;28;20025;-63
2023/08/01 03:39:54;;;;;;;5.60;2.95;;;18.10;99.90;;;;;;4161199;28;20504;-66
2023/08/01 03:41:55;;;;;;;7.95;2.70;;;18.30;99.90;;;;;;4160913;28;20088;-63
2023/08/01 03:43:57;;;;;;;5.15;3.13;;;18.50;99.90;;;;;;4161201;28;20029;-69
2023/08/01 03:45:58;;;;;;;6.38;2.75;;;18.70;99.90;;;;;;4161296;28;20029;-64
2023/08/01 03:47:59;;;;;;;8.45;2.80;;;18.90;99.90;;;;;;4161008;28;20030;-62
2023/08/01 03:50:00;;;;;;;6.68;2.88;;;19.10;99.90;;;;;;4161357;28;20088;-63
2023/08/01 03:52:02;;;;;;;3.08;2.28;;;19.20;99.90;;;;;;4160477;28;20061;-65
2023/08/01 03:54:03;;;;;;;4.10;2.58;;;19.30;99.90;;;;;;4160481;28;20521;-62
2023/08/01 03:56:04;;;;;;;9.02;2.95;;;19.40;99.90;;;;;;4160212;28;20096;-63
2023/08/01 03:58:05;;;;;;;3.65;2.50;;;19.40;99.90;;;;;;4161720;28;20049;-64
2023/08/01 04:00:13;;;;;;;9.60;3.38;;;19.60;99.90;;;;;;4159877;28;20482;-63
2023/08/01 04:02:14;;;;;;;4.15;2.40;;;19.80;99.90;;;;;;4145490;28;20391;-63
2023/08/01 04:04:15;;;;;;;6.28;2.40;;;20.10;99.90;;;;;;4158515;28;20049;-63
2023/08/01 04:06:16;;;;;;;4.78;2.72;;;20.30;99.90;;;;;;4161674;28;20103;-61
2023/08/01 04:08:17;;;;;;;3.03;2.17;;;20.60;99.90;;;;;;4160239;28;20543;-66
2023/08/01 04:10:18;;;;;;;6.60;2.50;;;20.90;99.90;;;;;;4160998;28;20103;-68
2023/08/01 04:12:20;;;;;;;2.88;2.20;;;21.20;99.90;;;;;;4160617;28;20075;-61
2023/08/01 04:14:21;;;;;;;4.97;2.35;;;21.60;99.90;;;;;;4160408;28;20091;-63
2023/08/01 04:16:22;;;;;;;4.25;2.50;;;21.90;99.90;;;;;;4160324;28;20038;-65
2023/08/01 04:18:23;;;;;;;4.60;2.33;;;22.40;99.90;;;;;;4160204;28;20037;-62
2023/08/01 04:20:24;;;;;;;9.52;3.03;;;22.80;99.90;;;;;;4158489;28;20083;-62
2023/08/01 04:22:25;;;;;;;10.68;3.17;;;23.30;99.90;;;;;;4159486;28;20104;-63
2023/08/01 04:24:27;;;;;;;10.55;3.28;;;23.60;99.90;;;;;;4161403;28;20045;-65
2023/08/01 04:26:28;;;;;;;4.95;2.65;;;23.90;99.90;;;;;;4159975;28;20041;-64
2023/08/01 04:28:29;;;;;;;8.02;3.00;;;24.40;99.90;;;;;;4160823;28;20030;-64
2023/08/01 04:30:33;;;;;;;3.75;2.20;;;24.90;99.90;;;;;;4159140;28;20045;-65
2023/08/01 04:32:34;;;;;;;6.10;2.47;;;25.30;99.90;;;;;;4161164;28;20029;-64
2023/08/01 04:34:35;;;;;;;5.25;2.72;;;25.40;99.90;;;;;;4159901;28;20379;-67
2023/08/01 04:36:36;;;;;;;6.60;2.78;;;25.40;99.90;;;;;;4161175;28;20099;-64
2023/08/01 04:38:37;;;;;;;6.35;2.85;;;25.20;99.90;;;;;;4159967;28;20091;-63
2023/08/01 04:40:38;;;;;;;7.68;3.40;;;25.10;99.90;;;;;;4160862;28;20038;-61
2023/08/01 04:42:39;;;;;;;6.00;3.50;;;25.40;99.90;;;;;;4160026;28;21100;-62
2023/08/01 04:44:40;;;;;;;11.18;3.88;;;25.60;99.90;;;;;;4160590;28;20033;-65
2023/08/01 04:46:42;;;;;;;3.72;2.45;;;26.00;99.90;;;;;;4160344;28;20029;-63
2023/08/01 04:48:43;;;;;;;5.90;3.60;;;25.90;99.90;;;;;;4160148;28;20026;-64
2023/08/01 04:50:44;;;;;;;8.82;2.95;;;26.10;99.90;;;;;;4160724;28;20516;-63
2023/08/01 04:52:46;;;;;;;10.77;3.30;;;26.50;99.90;;;;;;4158732;28;20147;-63
2023/08/01 04:54:47;;;;;;;6.25;2.40;;;26.80;99.90;;;;;;4160982;28;20021;-66
2023/08/01 04:56:48;;;;;;;4.75;2.30;;;26.90;99.90;;;;;;4159850;28;20057;-63
2023/08/01 04:58:49;;;;;;;9.23;2.28;;;27.30;99.90;;;;;;4159636;28;20034;-63
2023/08/01 05:00:50;;;;;;;7.45;2.75;;;27.30;99.90;;;;;;4160222;28;20042;-63
2023/08/01 05:02:52;;;;;;;4.03;2.38;;;27.40;99.90;;;;;;4161149;28;20122;-63
2023/08/01 05:04:53;;;;;;;8.35;2.30;;;27.50;99.90;;;;;;4159703;28;20458;-65
2023/08/01 05:06:54;;;;;;;7.60;2.85;;;27.50;99.90;;;;;;4161119;28;20067;-66
2023/08/01 05:08:55;;;;;;;3.05;1.77;;;27.70;99.90;;;;;;4159638;28;20038;-63
2023/08/01 05:10:56;;;;;;;4.55;2.17;;;28.20;99.90;;;;;;4160380;28;20421;-62
2023/08/01 05:12:57;;;;;;;5.35;1.80;;;28.90;99.90;;;;;;4159875;28;20071;-68
2023/08/01 05:14:58;;;;;;;1.75;1.45;;;29.40;99.90;;;;;;4160101;28;20021;-64
2023/08/01 05:17:00;;;;;;;3.20;1.40;;;29.70;99.30;;;;;;4160309;28;20033;-64
2023/08/01 05:19:01;;;;;;;4.30;1.42;;;29.70;98.60;;;;;;4158509;28;20039;-65
2023/08/01 05:21:02;;;;;;;1.95;1.58;;;29.40;98.30;;;;;;4160295;28;20450;-63
2023/08/01 05:23:03;;;;;;;5.32;1.58;;;29.10;98.40;;;;;;4159361;28;20346;-63
2023/08/01 05:25:05;;;;;;;4.28;1.50;;;28.80;98.40;;;;;;4160531;28;20060;-65
2023/08/01 05:27:06;;;;;;;2.88;1.55;;;28.90;98.30;;;;;;4159433;28;20466;-64
2023/08/01 05:29:07;;;;;;;2.17;1.75;;;28.90;98.00;;;;;;4160313;28;20030;-64
2023/08/01 05:31:08;;;;;;;2.10;1.48;;;28.20;98.10;;;;;;4159316;28;20033;-63
2023/08/01 05:33:09;;;;;;;7.57;1.73;;;28.20;98.50;;;;;;4160786;28;20037;-65
2023/08/01 05:35:11;;;;;;;4.05;1.75;;;28.80;98.10;;;;;;4159324;28;20399;-66
2023/08/01 05:37:12;;;;;;;4.22;1.83;;;29.40;97.50;;;;;;4160238;28;20174;-65
2023/08/01 05:39:13;;;;;;;9.55;2.95;;;29.50;97.10;;;;;;4157817;28;20083;-69
2023/08/01 05:41:14;;;;;;;6.75;2.50;;;29.10;97.10;;;;;;4160195;28;20037;-64
2023/08/01 05:43:15;;;;;;;5.90;3.53;;;28.30;97.40;;;;;;4159563;28;20053;-64
2023/08/01 05:45:16;;;;;;;5.20;2.97;;;27.40;98.40;;;;;;4159750;28;20123;-62
2023/08/01 05:47:18;;;;;;;9.00;3.97;;;26.50;99.20;;;;;;4159739;28;20159;-62
2023/08/01 05:49:19;;;;;;;8.13;3.17;;;26.00;99.90;;;;;;4159582;28;20370;-64
2023/08/01 05:51:20;;;;;;;8.43;3.40;;;25.70;99.90;;;;;;4160060;28;20033;-61
2023/08/01 05:53:22;;;;;;;10.68;3.88;;;25.70;99.90;;;;;;4159414;28;20046;-63
2023/08/01 05:55:23;;;;;;;7.38;3.92;;;25.30;99.90;;;;;;4162965;28;20497;-66
2023/08/01 05:57:24;;;;;;;8.70;4.03;;;24.80;99.90;;;;;;4162251;28;20103;-67
2023/08/01 05:59:26;;;;;;;10.82;4.22;;;24.40;99.90;;;;;;4163559;28;20115;-63
2023/08/01 06:01:28;;;;;;;13.57;4.18;;;23.90;99.90;;;;;;4162336;28;20029;-63
2023/08/01 06:03:29;;;;;;;10.48;4.00;;;23.40;99.90;;;;;;4163291;28;20188;-63
2023/08/01 06:05:30;;;;;;;8.43;4.03;;;23.10;99.90;;;;;;4161986;28;20474;-63
2023/08/01 06:07:31;;;;;;;7.53;4.18;;;22.90;99.90;;;;;;4163376;28;20095;-63
2023/08/01 06:09:32;;;;;;;7.85;4.30;;;22.60;99.90;;;;;;4160788;28;20030;-64
2023/08/01 06:11:34;;;;;;;18.40;4.80;;;22.10;99.90;;;;;;4162843;28;20144;-64
2023/08/01 06:13:35;;;;;;;4.82;3.50;;;21.70;99.90;;;;;;4161960;28;20017;-65
2023/08/01 06:15:36;;;;;;;6.07;3.63;;;21.50;99.90;;;;;;4161182;28;20037;-63
2023/08/01 06:17:38;;;;;;;4.40;3.38;;;21.70;99.90;;;;;;4162303;28;20030;-66
2023/08/01 06:19:39;;;;;;;5.65;3.67;;;21.70;99.90;;;;;;4162173;28;20025;-64
2023/08/01 06:21:40;;;;;;;7.07;3.50;;;21.70;99.90;;;;;;4162905;28;20045;-64
2023/08/01 06:23:41;;;;;;;4.40;3.38;;;21.70;99.90;;;;;;4161462;28;20099;-66
2023/08/01 06:25:42;;;;;;;7.65;2.88;;;21.60;99.90;;;;;;4162826;28;20087;-63
2023/08/01 06:27:43;;;;;;;4.85;3.70;;;21.50;99.90;;;;;;4161615;28;20436;-69
2023/08/01 06:29:44;;;;;;;4.28;2.80;;;21.70;99.90;;;;;;4162879;28;20474;-68
2023/08/01 06:31:46;;;;;;;7.22;2.70;;;21.70;99.90;;;;;;4162155;28;20628;-65
2023/08/01 06:33:47;;;;;;;4.47;3.20;;;21.70;99.90;;;;;;4162839;28;20068;-66
2023/08/01 06:35:48;;;;;;;5.40;3.05;;;21.60;99.90;;;;;;4161720;28;20038;-66
2023/08/01 06:37:49;;;;;;;4.45;3.20;;;21.50;99.90;;;;;;4162540;28;20082;-64
2023/08/01 06:39:50;;;;;;;3.38;3.10;;;21.60;99.90;;;;;;4161612;28;20075;-63
2023/08/01 06:41:51;;;;;;;3.47;3.17;;;21.70;99.90;;;;;;4162020;28;20029;-64
2023/08/01 06:43:52;;;;;;;4.70;3.00;;;21.80;99.90;;;;;;4161587;28;20053;-69
2023/08/01 06:45:54;;;;;;;7.07;3.00;;;21.70;99.90;;;;;;4161648;28;20060;-62
2023/08/01 06:47:55;;;;;;;4.53;3.20;;;21.80;99.90;;;;;;4162227;28;20072;-64
2023/08/01 06:49:56;;;;;;;5.38;3.25;;;21.80;99.90;;;;;;4161455;28;20178;-61
2023/08/01 06:51:57;;;;;;;4.05;3.03;;;22.00;99.90;;;;;;4162126;28;20104;-63
2023/08/01 06:53:58;;;;;;;3.50;2.70;;;22.30;99.90;;;;;;4160824;28;20029;-63
2023/08/01 06:55:59;;;;;;;6.35;2.50;;;22.30;99.90;;;;;;4161579;28;20042;-63
2023/08/01 06:58:00;;;;;;;4.00;3.25;;;22.30;99.90;;;;;;4160874;28;20163;-63
2023/08/01 07:00:02;;;;;;;4.28;3.38;;;22.10;99.90;;;;;;4162033;28;20087;-67
2023/08/01 07:02:04;;;;;;;3.28;2.97;;;22.20;99.90;;;;;;4161187;28;20018;-66
2023/08/01 07:04:05;;;;;;;4.63;3.13;;;22.30;99.90;;;;;;4161562;28;20049;-62
2023/08/01 07:06:06;;;;;;;4.90;3.00;;;22.20;99.90;;;;;;4160402;28;20075;-64
2023/08/01 07:08:07;;;;;;;6.55;3.17;;;22.30;99.90;;;;;;4162039;28;20033;-64
2023/08/01 07:10:09;;;;;;;4.57;3.25;;;22.40;99.90;;;;;;4160732;28;20730;-62
2023/08/01 07:12:10;;;;;;;5.95;2.85;;;22.40;99.90;;;;;;4161589;28;20062;-62
2023/08/01 07:14:11;;;;;;;7.97;3.38;;;22.50;99.90;;;;;;4161143;28;20030;-63
2023/08/01 07:16:12;;;;;;;3.50;3.17;;;22.50;99.90;;;;;;4161269;28;20033;-63
2023/08/01 07:18:13;;;;;;;4.75;3.35;;;22.30;99.90;;;;;;4161325;28;20152;-64
2023/08/01 07:20:15;;;;;;;3.30;3.00;;;22.20;99.90;;;;;;4161011;28;20103;-64
2023/08/01 07:22:17;;;;;;;4.68;3.50;;;22.30;99.90;;;;;;4161385;28;20425;-62
2023/08/01 07:24:19;;;;;;;3.35;3.05;;;22.40;99.90;;;;;;4160691;28;20410;-62
2023/08/01 07:26:20;;;;;;;7.10;3.17;;;22.30;99.90;;;;;;4161891;28;20440;-63
2023/08/01 07:28:21;;;;;;;5.20;2.95;;;22.40;99.90;;;;;;4159512;28;20045;-65
2023/08/01 07:30:22;;;;;;;4.10;2.88;;;22.60;99.90;;;;;;4160298;28;20139;-62
2023/08/01 07:32:23;;;;;;;4.97;2.85;;;22.60;99.90;;;;;;4160753;28;20068;-65
2023/08/01 07:34:25;;;;;;;3.20;2.90;;;22.70;99.90;;;;;;4161901;28;20038;-63
2023/08/01 07:36:26;;;;;;;3.20;2.90;;;22.70;99.90;;;;;;4160702;28;20485;-64
2023/08/01 07:38:27;;;;;;;3.38;2.88;;;22.70;99.90;;;;;;4161513;28;20037;-63
2023/08/01 07:40:28;;;;;;;3.13;2.60;;;22.60;99.90;;;;;;4160175;28;20144;-70
2023/08/01 07:42:30;;;;;;;4.88;2.90;;;22.70;99.90;;;;;;4161243;28;20087;-63
2023/08/01 07:44:31;;;;;;;3.08;2.72;;;22.80;99.90;;;;;;4159391;28;20037;-68
2023/08/01 07:46:32;;;;;;;5.13;3.22;;;22.90;99.90;;;;;;4161080;28;20093;-64
2023/08/01 07:48:34;;;;;;;2.97;2.67;;;22.90;99.90;;;;;;4161275;28;20159;-67
2023/08/01 07:50:35;;;;;;;3.35;3.05;;;23.10;99.90;;;;;;4160708;28;20076;-68
2023/08/01 07:52:36;;;;;;;3.45;2.90;;;23.20;99.90;;;;;;4161258;28;20121;-70
2023/08/01 07:54:37;;;;;;;3.00;2.70;;;23.30;99.90;;;;;;4160600;28;20498;-71
2023/08/01 07:56:39;;;;;;;3.75;2.65;;;23.20;99.90;;;;;;4161073;28;20107;-62
2023/08/01 07:58:40;;;;;;;3.80;2.97;;;23.20;99.90;;;;;;4160318;28;20045;-70
2023/08/01 08:00:41;;;;;;;2.88;2.42;;;23.30;99.90;;;;;;4160053;28;20033;-71
2023/08/01 08:02:45;;;;;;;2.92;2.45;;;23.30;99.90;;;;;;4160208;28;20115;-62
2023/08/01 08:04:46;;;;;;;4.00;2.40;;;23.50;99.90;;;;;;4161142;28;20170;-69
2023/08/01 08:06:48;;;;;;;3.60;2.35;;;23.80;99.90;;;;;;4160236;28;20064;-69
2023/08/01 08:08:49;;;;;;;2.15;2.05;;;23.90;99.90;;;;;;4161397;28;20099;-62
2023/08/01 08:10:50;;;;;;;4.13;2.20;;;23.90;99.90;;;;;;4160280;28;20037;-63
2023/08/01 08:12:52;;;;;;;4.60;2.20;;;24.10;99.90;;;;;;4160893;28;20381;-70
2023/08/01 08:14:53;;;;;;;4.10;2.28;;;24.10;99.90;;;;;;4159970;28;20071;-66
2023/08/01 08:16:54;;;;;;;4.60;2.75;;;24.20;99.90;;;;;;4160060;28;20083;-66
2023/08/01 08:18:55;;;;;;;5.45;2.55;;;24.10;99.90;;;;;;4160391;28;20469;-68
2023/08/01 08:20:57;;;;;;;3.55;2.20;;;24.20;99.90;;;;;;4160240;28;20433;-69
2023/08/01 08:22:58;;;;;;;2.42;1.92;;;24.00;99.90;;;;;;4160698;28;20476;-66
2023/08/01 08:24:59;;;;;;;3.30;2.22;;;24.10;99.90;;;;;;4159793;28;20099;-64
2023/08/01 08:27:00;;;;;;;1.73;1.60;;;24.00;99.90;;;;;;4159233;28;20083;-68
2023/08/01 08:29:01;;;;;;;3.42;1.92;;;23.90;99.90;;;;;;4159636;28;20427;-70
2023/08/01 08:31:03;;;;;;;5.28;2.70;;;23.70;99.90;;;;;;4161042;28;20046;-62
2023/08/01 08:33:06;;;;;;;2.58;2.00;;;24.10;99.90;;;;;;4159976;28;20432;-62
2023/08/01 08:35:07;;;;;;;2.13;1.77;;;24.40;99.90;;;;;;4160814;28;20017;-63
2023/08/01 08:37:09;;;;;;;2.50;1.58;;;24.60;99.90;;;;;;4159616;28;20091;-62
2023/08/01 08:39:10;;;;;;;2.20;1.55;;;24.90;99.90;;;;;;4160790;28;20033;-61
2023/08/01 08:41:15;;;;;;;5.05;2.22;;;25.10;99.90;;;;;;4159479;28;20064;-63
2023/08/01 08:43:17;;;;;;;2.90;2.25;;;25.20;99.90;;;;;;4160886;28;20026;-63
2023/08/01 08:45:20;;;;;;;2.38;2.17;;;25.20;99.90;;;;;;4159575;28;20103;-61
2023/08/01 08:47:25;;;;;;;2.10;1.90;;;25.20;99.90;;;;;;4160222;28;20096;-63
2023/08/01 08:49:26;;;;;;;4.05;1.70;;;25.20;99.90;;;;;;4159510;28;20095;-63
2023/08/01 08:51:29;;;;;;;2.75;2.05;;;25.10;99.90;;;;;;4160410;28;20152;-64
2023/08/01 08:53:32;;;;;;;2.40;1.90;;;25.00;99.90;;;;;;4159924;28;20041;-65
2023/08/01 08:55:33;;;;;;;2.78;1.40;;;25.20;99.90;;;;;;4158523;28;20452;-63
2023/08/01 08:57:35;;;;;;;3.08;2.05;;;25.30;99.90;;;;;;4160156;28;20436;-66
2023/08/01 08:59:37;;;;;;;4.15;2.10;;;25.20;99.90;;;;;;4159868;28;20030;-64
2023/08/01 09:01:39;;;;;;;1.48;1.25;;;25.30;99.90;;;;;;4160383;28;20029;-62
2023/08/01 09:03:40;;;;;;;2.45;1.92;;;25.40;99.90;;;;;;4158655;28;20057;-65
2023/08/01 09:05:59;;;;;;;3.47;1.60;;;25.50;99.90;;;;;;4160337;28;20539;-65
2023/08/01 09:08:04;;;;;;;1.40;1.30;;;25.40;99.90;;;;;;4159417;28;20572;-63
2023/08/01 09:10:06;;;;;;;7.18;1.52;;;25.50;99.90;;;;;;4160645;28;20064;-65
2023/08/01 09:12:09;;;;;;;2.25;1.50;;;25.60;99.90;;;;;;4159083;28;20535;-62
2023/08/01 09:14:10;;;;;;;1.50;1.40;;;25.60;99.90;;;;;;4160548;28;20037;-62
2023/08/01 09:16:12;;;;;;;3.33;1.50;;;25.50;99.90;;;;;;4159162;28;20030;-66
2023/08/01 09:18:13;;;;;;;3.30;1.17;;;25.40;99.90;;;;;;4160345;28;20042;-66
2023/08/01 09:20:14;;;;;;;2.25;1.58;;;25.60;99.90;;;;;;4159504;28;20536;-67
2023/08/01 09:22:17;;;;;;;2.33;1.50;;;25.80;99.90;;;;;;4160297;28;20099;-67
2023/08/01 09:24:20;;;;;;;3.83;1.45;;;25.90;99.90;;;;;;4159203;28;20114;-68
2023/08/01 09:26:21;;;;;;;1.67;1.35;;;25.90;99.90;;;;;;4160336;28;20033;-64
2023/08/01 09:28:23;;;;;;;2.55;1.42;;;25.90;99.90;;;;;;4160848;28;20021;-64
2023/08/01 09:30:28;;;;;;;2.08;1.70;;;26.20;99.90;;;;;;4163238;28;20095;-72
2023/08/01 09:32:29;;;;;;;1.67;1.38;;;26.20;99.90;;;;;;4163122;28;20129;-70
2023/08/01 09:34:30;;;;;;;1.30;1.20;;;26.00;99.90;;;;;;4163260;28;20037;-64
2023/08/01 09:36:34;;;;;;;3.25;1.35;;;25.90;99.90;;;;;;4162960;28;20021;-62
2023/08/01 09:38:37;;;;;;;1.80;1.42;;;25.90;99.90;;;;;;4162250;28;20041;-62
2023/08/01 09:40:39;;;;;;;3.17;1.55;;;25.80;99.90;;;;;;4163509;28;21844;-65
2023/08/01 09:42:42;;;;;;;2.25;1.30;;;25.80;99.90;;;;;;4162191;28;20484;-63
2023/08/01 09:44:46;;;;;;;1.50;1.38;;;25.90;99.90;;;;;;4163167;28;20033;-64
2023/08/01 09:47:04;;;;;;;2.65;1.50;;;26.00;99.90;;;;;;4162075;28;20025;-67
2023/08/01 09:49:12;;;;;;;1.60;1.50;;;26.00;99.90;;;;;;4163559;28;20104;-63
2023/08/01 09:51:15;;;;;;;1.52;1.27;;;26.00;99.90;;;;;;4162143;28;20034;-66
2023/08/01 09:53:16;;;;;;;3.17;1.38;;;25.90;99.90;;;;;;4163086;28;20111;-63
2023/08/01 09:55:20;;;;;;;1.50;1.40;;;26.00;99.90;;;;;;4161492;28;20095;-63
2023/08/01 09:57:22;;;;;;;1.85;1.40;;;26.00;99.90;;;;;;4163213;28;20424;-62
2023/08/01 09:59:25;;;;;;;2.80;1.35;;;25.90;99.90;;;;;;4161989;28;20029;-64
2023/08/01 10:01:27;;;;;;;1.42;1.20;;;26.00;99.90;;;;;;4163262;28;20478;-64
2023/08/01 10:03:29;;;;;;;2.40;1.50;;;26.10;99.90;;;;;;4162055;28;20096;-64
2023/08/01 10:05:32;;;;;;;1.65;1.55;;;26.30;99.90;;;;;;4163522;28;20440;-67
2023/08/01 10:07:34;;;;;;;1.50;1.40;;;26.60;99.90;;;;;;4161631;28;20067;-62
2023/08/01 10:09:36;;;;;;;1.88;1.50;;;26.70;99.90;;;;;;4162616;28;20084;-63
2023/08/01 10:11:38;;;;;;;1.73;1.63;;;26.70;99.90;;;;;;4162018;28;20037;-64
2023/08/01 10:13:41;;;;;;;1.83;1.63;;;26.50;99.90;;;;;;4162196;28;20029;-62
2023/08/01 10:15:43;;;;;;;2.13;1.42;;;26.50;99.90;;;;;;4162288;28;20036;-62
2023/08/01 10:17:44;;;;;;;1.65;1.35;;;26.40;99.90;;;;;;4162089;28;20041;-62
2023/08/01 10:19:46;;;;;;;2.22;1.30;;;26.30;99.90;;;;;;4162634;28;20037;-63
2023/08/01 10:21:48;;;;;;;2.70;1.58;;;26.30;99.90;;;;;;4161603;28;20057;-62
2023/08/01 10:23:49;;;;;;;1.52;1.40;;;26.30;99.90;;;;;;4162570;28;20115;-62
2023/08/01 10:25:51;;;;;;;1.77;1.58;;;26.30;99.90;;;;;;4161545;28;20041;-68
2023/08/01 10:28:00;;;;;;;2.97;1.40;;;26.30;99.90;;;;;;4162575;28;20041;-64
2023/08/01 10:30:03;;;;;;;1.75;1.58;;;26.10;99.90;;;;;;4161871;28;20476;-63
2023/08/01 10:32:06;;;;;;;1.60;1.50;;;25.90;99.90;;;;;;4161400;28;20417;-64